Gifford, Iowa
Current Conditions -  °F | °C
As of 8:53 AM on Wednesday 26 Nov 2014 (Local Time) from KMIW Reporting Station
Light Snow Light Snow  
Wind Chill: -10°   Ceiling: 1500
Heat Index: -3°   Visibility: 1mi
Dew Point: -5°   Wind: 14mph
Humidity: 88%   Direction: 90°E
Pressure: 29.96"   Gusts: NA
Location:  42.29°N, 93.09°W
Report Text: KMIW 261453Z AUTO 09012KT 1SM -SN BR OVC015 M03/M05 A2996 RMK AO2 SLP157 P0000 60000 T10331050 51009
Loading
Personal Weather Stations






























Interactive Weather Map New forecast layout! Learn more

10-Day Weather Forecast

Advertisements
Track Severe Weather on mobile